Terminal Aerodrome Forecast
Issued by NWS

Home | Current Version | Previous Version | Text Only | Print | Product List | Glossary On
Versions: 1 2 3 4 5 6 7 8 9 10 11 12 13 14 15 16 17 18 19 20 21
000
FTUS43 KOAX 290532
TAFSNY
TAF
KSNY 290532Z 2906/3006 36012KT P6SM VCTS BKN050CB
     FM290700 32008KT P6SM BKN100
     FM291800 36015G22KT P6SM -RA VCTS SCT025CB OVC050=

USA.gov is the U.S. government's official web portal to all federal, state and local government web resources and services.